createdAt,value
2023-01-23T00:01:33.113Z,6.65
2023-01-23T00:04:01.315Z,6.30
2023-01-23T00:06:29.704Z,5.88
2023-01-23T00:08:58.314Z,6.28
2023-01-23T00:11:27.738Z,5.15
2023-01-23T00:13:55.942Z,6.53
2023-01-23T00:16:26.201Z,5.93
2023-01-23T00:18:55.412Z,5.90
2023-01-23T00:21:25.685Z,5.85
2023-01-23T00:23:57.207Z,5.95
2023-01-23T00:26:27.776Z,6.90
2023-01-23T00:28:55.615Z,6.13
2023-01-23T00:31:26.111Z,6.15
2023-01-23T00:33:58.262Z,6.90
2023-01-23T00:36:29.554Z,6.57
2023-01-23T00:38:57.941Z,6.63
2023-01-23T00:41:26.174Z,7.17
2023-01-23T00:43:53.858Z,6.55
2023-01-23T00:46:22.505Z,6.60
2023-01-23T00:48:50.422Z,7.28
2023-01-23T00:51:20.396Z,10.25
2023-01-23T00:53:48.502Z,11.00
2023-01-23T00:56:16.919Z,11.27
2023-01-23T00:58:45.315Z,7.25
2023-01-23T01:01:13.892Z,8.57
2023-01-23T01:03:42.242Z,8.50
2023-01-23T01:06:10.163Z,6.80
2023-01-23T01:08:39.354Z,7.80
2023-01-23T01:11:08.049Z,7.00
2023-01-23T01:13:36.433Z,6.78
2023-01-23T01:16:04.909Z,5.95
2023-01-23T01:18:33.243Z,6.00
2023-01-23T01:21:01.808Z,6.55
2023-01-23T01:23:29.810Z,7.05
2023-01-23T01:26:02.007Z,7.25
2023-01-23T01:28:31.694Z,7.43
2023-01-23T01:31:00.408Z,6.90
2023-01-23T01:33:28.450Z,6.82
2023-01-23T01:35:57.404Z,6.88
2023-01-23T01:38:25.659Z,7.65
2023-01-23T01:40:53.525Z,6.82
2023-01-23T01:43:28.413Z,7.87
2023-01-23T01:46:13.442Z,7.43
2023-01-23T01:48:45.986Z,6.45
2023-01-23T01:51:21.062Z,6.30
2023-01-23T01:53:53.648Z,6.32
2023-01-23T01:56:22.035Z,6.53
2023-01-23T01:58:54.177Z,7.72
2023-01-23T02:01:22.303Z,7.38
2023-01-23T02:03:51.897Z,8.15
2023-01-23T02:06:20.920Z,8.18
2023-01-23T02:08:55.147Z,7.80
2023-01-23T02:11:23.440Z,15.55
2023-01-23T02:13:55.954Z,15.73
2023-01-23T02:16:28.096Z,17.88
2023-01-23T02:19:00.776Z,16.80
2023-01-23T02:21:29.070Z,18.23
2023-01-23T02:24:10.504Z,14.85
2023-01-23T02:26:42.315Z,8.38
2023-01-23T02:29:10.880Z,8.07
2023-01-23T02:31:39.205Z,6.97
2023-01-23T02:34:07.331Z,6.73
2023-01-23T02:36:37.327Z,7.00
2023-01-23T02:39:07.718Z,6.80
2023-01-23T02:41:37.421Z,7.38
2023-01-23T02:44:12.657Z,7.53
2023-01-23T02:46:40.775Z,6.63
2023-01-23T02:49:08.966Z,6.03
2023-01-23T02:51:37.447Z,6.47
2023-01-23T02:54:05.672Z,6.20
2023-01-23T02:56:34.014Z,6.63
2023-01-23T02:59:19.917Z,6.90
2023-01-23T03:01:48.992Z,5.63
2023-01-23T03:04:16.804Z,6.13
2023-01-23T03:06:44.692Z,5.70
2023-01-23T03:09:14.005Z,5.63
2023-01-23T03:11:43.674Z,6.80
2023-01-23T03:14:14.975Z,6.18
2023-01-23T03:16:46.910Z,6.28
2023-01-23T03:19:16.211Z,6.30
2023-01-23T03:21:43.816Z,5.80
2023-01-23T03:24:14.829Z,5.93
2023-01-23T03:26:43.945Z,7.70
2023-01-23T03:29:33.128Z,6.38
2023-01-23T03:34:38.538Z,6.97
2023-01-23T03:37:08.138Z,6.87
2023-01-23T03:39:53.903Z,7.15
2023-01-23T03:42:22.609Z,6.57
2023-01-23T03:44:52.678Z,5.55
2023-01-23T03:47:20.861Z,6.07
2023-01-23T03:49:50.496Z,6.73
2023-01-23T03:52:18.832Z,5.32
2023-01-23T03:54:47.253Z,6.30
2023-01-23T03:57:15.132Z,5.53
2023-01-23T03:59:43.194Z,5.90
2023-01-23T04:02:11.346Z,6.37
2023-01-23T04:04:39.058Z,6.38
2023-01-23T04:07:08.511Z,6.03
2023-01-23T04:09:36.274Z,6.40
2023-01-23T04:12:04.262Z,6.13
2023-01-23T04:14:37.677Z,6.10
2023-01-23T04:17:06.226Z,6.10
2023-01-23T04:19:34.388Z,6.13
2023-01-23T04:22:02.576Z,5.95
2023-01-23T04:24:31.910Z,5.50
2023-01-23T04:27:00.155Z,6.07
2023-01-23T04:29:28.233Z,6.03
2023-01-23T04:31:56.067Z,6.40
2023-01-23T04:34:23.963Z,5.85
2023-01-23T04:36:52.392Z,5.85
2023-01-23T04:39:20.133Z,4.97
2023-01-23T04:41:49.118Z,5.78
2023-01-23T04:44:23.270Z,6.55
2023-01-23T04:46:54.341Z,5.95
2023-01-23T04:49:22.862Z,6.50
2023-01-23T04:51:51.599Z,6.50
2023-01-23T04:54:20.666Z,9.30
2023-01-23T04:56:50.056Z,9.13
2023-01-23T04:59:18.373Z,6.68
2023-01-23T05:01:46.672Z,8.50
2023-01-23T05:04:15.043Z,6.90
2023-01-23T05:06:42.905Z,6.55
2023-01-23T05:09:10.880Z,6.53
2023-01-23T05:11:38.643Z,5.85
2023-01-23T05:14:07.990Z,5.35
2023-01-23T05:16:35.838Z,6.33
2023-01-23T05:19:04.280Z,6.05
2023-01-23T05:21:32.105Z,5.57
2023-01-23T05:24:00.023Z,5.97
2023-01-23T05:26:27.906Z,6.60
2023-01-23T05:28:55.795Z,6.87
2023-01-23T05:31:24.889Z,7.10
2023-01-23T05:33:52.918Z,7.47
2023-01-23T05:36:20.997Z,8.55
2023-01-23T05:38:49.667Z,15.65
2023-01-23T05:41:17.813Z,11.17
2023-01-23T05:43:45.800Z,8.23
2023-01-23T05:46:13.773Z,8.00
2023-01-23T05:48:43.722Z,10.38
2023-01-23T05:51:11.808Z,11.68
2023-01-23T05:53:40.016Z,9.30
2023-01-23T05:56:09.218Z,8.07
2023-01-23T05:58:37.094Z,6.68
2023-01-23T06:01:05.776Z,5.22
2023-01-23T06:03:34.867Z,6.45
2023-01-23T06:06:04.185Z,8.70
2023-01-23T06:08:32.093Z,8.02
2023-01-23T06:11:00.797Z,8.50
2023-01-23T06:13:29.508Z,6.45
2023-01-23T06:15:58.255Z,6.10
2023-01-23T06:18:26.268Z,6.03
2023-01-23T06:20:59.966Z,6.35
2023-01-23T06:23:29.990Z,5.95
2023-01-23T06:26:01.838Z,5.60
2023-01-23T06:28:30.051Z,4.95
2023-01-23T06:31:02.676Z,5.90
2023-01-23T06:33:31.145Z,5.80
2023-01-23T06:36:00.387Z,7.45
2023-01-23T06:38:30.347Z,5.80
2023-01-23T06:40:58.774Z,5.95
2023-01-23T06:43:27.399Z,6.93
2023-01-23T06:45:55.336Z,5.65
2023-01-23T06:48:24.255Z,6.13
2023-01-23T06:50:52.733Z,5.93
2023-01-23T06:53:23.305Z,5.72
2023-01-23T06:55:52.831Z,8.20
2023-01-23T06:58:21.008Z,8.02
2023-01-23T07:00:48.995Z,8.10
2023-01-23T07:03:17.481Z,9.65
2023-01-23T07:05:45.502Z,8.50
2023-01-23T07:08:14.976Z,7.53
2023-01-23T07:10:43.544Z,8.63
2023-01-23T07:13:14.956Z,9.85
2023-01-23T07:15:43.108Z,10.00
2023-01-23T07:18:12.035Z,8.90
2023-01-23T07:20:41.359Z,9.10
2023-01-23T07:23:12.872Z,11.25
2023-01-23T07:25:43.375Z,8.18
2023-01-23T07:28:13.378Z,8.82
2023-01-23T07:30:41.369Z,8.30
2023-01-23T07:33:09.963Z,8.77
2023-01-23T07:35:40.126Z,7.50
2023-01-23T07:38:09.035Z,7.35
2023-01-23T07:40:39.156Z,6.70
2023-01-23T07:43:07.851Z,6.70
2023-01-23T07:45:37.861Z,7.27
2023-01-23T07:48:06.096Z,6.05
2023-01-23T07:50:34.466Z,6.22
2023-01-23T07:53:03.346Z,5.10
2023-01-23T07:55:31.964Z,5.85
2023-01-23T07:57:59.808Z,5.40
2023-01-23T08:00:29.874Z,5.68
2023-01-23T08:02:59.251Z,5.93
2023-01-23T08:05:27.267Z,7.07
2023-01-23T08:08:11.362Z,6.30
2023-01-23T08:10:40.484Z,6.37
2023-01-23T08:13:08.604Z,8.13
2023-01-23T08:15:38.291Z,6.40
2023-01-23T08:18:07.651Z,7.55
2023-01-23T08:20:35.508Z,8.65
2023-01-23T08:23:04.190Z,9.43
2023-01-23T08:25:32.230Z,8.48
2023-01-23T08:28:00.351Z,8.27
2023-01-23T08:30:28.359Z,7.25
2023-01-23T08:32:57.335Z,11.80
2023-01-23T08:35:26.837Z,10.73
2023-01-23T08:37:55.113Z,10.13
2023-01-23T08:40:23.437Z,10.75
2023-01-23T08:42:51.926Z,10.07
2023-01-23T08:45:19.772Z,8.18
2023-01-23T08:47:47.751Z,6.47
2023-01-23T08:50:16.097Z,5.68
2023-01-23T08:52:45.475Z,5.93
2023-01-23T08:55:14.006Z,4.47
2023-01-23T08:57:41.673Z,5.40
2023-01-23T09:00:11.712Z,5.50
2023-01-23T09:02:39.857Z,5.13
2023-01-23T09:05:08.477Z,5.85
2023-01-23T09:07:38.373Z,5.18
2023-01-23T09:10:09.273Z,5.60
2023-01-23T09:12:37.479Z,4.93
2023-01-23T09:15:06.050Z,5.00
2023-01-23T09:17:33.972Z,4.65
2023-01-23T09:20:01.872Z,4.53
2023-01-23T09:22:29.670Z,4.97
2023-01-23T09:24:57.448Z,5.00
2023-01-23T09:27:26.365Z,5.10
2023-01-23T09:29:54.368Z,5.03
2023-01-23T09:32:22.062Z,4.95
2023-01-23T09:34:50.135Z,5.78
2023-01-23T09:37:18.695Z,5.73
2023-01-23T09:39:46.578Z,6.60
2023-01-23T09:42:19.221Z,6.38
2023-01-23T09:44:51.642Z,6.13
2023-01-23T09:47:24.272Z,6.15
2023-01-23T09:50:00.375Z,4.50
2023-01-23T09:52:32.860Z,4.70
2023-01-23T09:55:05.388Z,4.72
2023-01-23T09:57:38.065Z,5.22
2023-01-23T10:00:15.003Z,5.30
2023-01-23T10:02:45.816Z,5.03
2023-01-23T10:05:15.786Z,4.47
2023-01-23T10:07:57.694Z,5.38
2023-01-23T10:10:46.434Z,4.28
2023-01-23T10:13:18.400Z,4.82
2023-01-23T10:16:15.891Z,4.90
2023-01-23T10:18:54.541Z,5.63
2023-01-23T10:21:29.928Z,5.05
2023-01-23T10:24:07.759Z,4.82
2023-01-23T10:26:41.298Z,4.95
2023-01-23T10:29:16.558Z,5.40
2023-01-23T10:31:49.619Z,5.03
2023-01-23T10:34:24.768Z,5.00
2023-01-23T10:37:08.883Z,5.20
2023-01-23T10:39:49.136Z,5.35
2023-01-23T10:42:21.043Z,5.87
2023-01-23T10:44:49.219Z,5.72
2023-01-23T10:47:22.552Z,4.95
2023-01-23T10:49:51.873Z,5.25
2023-01-23T10:52:33.079Z,4.97
2023-01-23T10:55:00.862Z,4.83
2023-01-23T10:57:31.196Z,4.72
2023-01-23T11:00:04.226Z,5.35
2023-01-23T11:02:33.605Z,5.15
2023-01-23T11:05:23.739Z,5.15
2023-01-23T11:07:56.461Z,5.17
2023-01-23T11:10:25.039Z,5.32
2023-01-23T11:12:54.895Z,5.03
2023-01-23T11:15:25.575Z,5.22
2023-01-23T11:17:55.799Z,4.85
2023-01-23T11:20:27.743Z,4.73
2023-01-23T11:23:05.296Z,4.22
2023-01-23T11:25:36.877Z,4.80
2023-01-23T11:28:23.639Z,4.68
2023-01-23T11:31:03.741Z,4.68
2023-01-23T11:33:44.529Z,3.97
2023-01-23T11:36:30.024Z,3.75
2023-01-23T11:39:01.610Z,4.03
2023-01-23T11:41:31.862Z,4.38
2023-01-23T11:44:00.335Z,4.30
2023-01-23T11:46:52.388Z,3.27
2023-01-23T11:49:36.399Z,3.85
2023-01-23T11:52:24.155Z,3.55
2023-01-23T11:55:07.362Z,3.75
2023-01-23T11:57:45.058Z,3.95
2023-01-23T12:00:24.035Z,3.30
2023-01-23T12:03:32.658Z,3.13
2023-01-23T12:06:20.081Z,3.33
2023-01-23T12:08:57.335Z,3.28
2023-01-23T12:11:29.420Z,3.28
2023-01-23T12:14:06.465Z,3.77
2023-01-23T12:16:48.150Z,3.78
2023-01-23T12:19:29.281Z,4.10
2023-01-23T12:22:06.253Z,3.75
2023-01-23T12:24:51.916Z,7.07
2023-01-23T12:27:29.234Z,4.23
2023-01-23T12:30:29.264Z,3.88
2023-01-23T12:33:12.869Z,3.63
2023-01-23T12:35:53.629Z,3.92
2023-01-23T12:38:30.346Z,4.25
2023-01-23T12:41:10.575Z,3.57
2023-01-23T12:43:47.196Z,3.78
2023-01-23T12:46:19.848Z,3.75
2023-01-23T12:48:52.865Z,3.95
2023-01-23T12:51:24.423Z,3.10
2023-01-23T12:53:59.114Z,3.03
2023-01-23T12:56:33.084Z,3.33
2023-01-23T12:59:08.936Z,3.60
2023-01-23T13:01:51.889Z,3.45
2023-01-23T13:04:37.460Z,4.22
2023-01-23T13:07:15.510Z,3.93
2023-01-23T13:09:55.813Z,3.83
2023-01-23T13:12:27.497Z,5.43
2023-01-23T13:15:16.275Z,3.40
2023-01-23T13:17:49.362Z,3.45
2023-01-23T13:20:46.702Z,3.80
2023-01-23T13:23:31.212Z,3.95
2023-01-23T13:26:29.467Z,4.28
2023-01-23T13:29:02.394Z,3.92
2023-01-23T13:31:47.268Z,4.28
2023-01-23T13:34:45.695Z,4.90
2023-01-23T13:37:51.481Z,3.38
2023-01-23T13:40:23.230Z,4.07
2023-01-23T13:42:51.972Z,4.00
2023-01-23T13:45:32.922Z,4.00
2023-01-23T14:20:48.016Z,3.08
2023-01-23T14:23:31.071Z,4.00
2023-01-23T14:25:59.153Z,6.28
2023-01-23T14:28:27.486Z,11.23
2023-01-23T14:31:01.242Z,9.90
2023-01-23T14:33:40.238Z,14.45
2023-01-23T14:36:14.103Z,10.98
2023-01-23T14:38:42.227Z,7.15
2023-01-23T14:41:10.313Z,14.65
2023-01-23T14:43:39.430Z,15.00
2023-01-23T14:46:13.712Z,8.50
2023-01-23T14:48:45.471Z,7.47
2023-01-23T14:51:20.191Z,10.80
2023-01-23T14:53:56.928Z,9.07
2023-01-23T14:56:29.318Z,10.40
2023-01-23T14:58:59.837Z,11.95
2023-01-23T15:01:28.521Z,11.02
2023-01-23T15:04:02.246Z,13.55
2023-01-23T15:06:31.992Z,13.05
2023-01-23T15:09:09.552Z,8.47
2023-01-23T15:11:37.344Z,7.68
2023-01-23T15:14:06.419Z,14.32
2023-01-23T15:16:37.909Z,16.67
2023-01-23T15:19:09.525Z,8.48
2023-01-23T15:21:42.300Z,10.20
2023-01-23T15:24:29.560Z,16.20
2023-01-23T15:27:00.599Z,6.97
2023-01-23T15:29:28.490Z,4.30
2023-01-23T15:31:57.106Z,5.25
2023-01-23T15:34:30.828Z,5.50
2023-01-23T15:37:07.290Z,5.45
2023-01-23T15:39:39.313Z,6.30
2023-01-23T15:42:27.634Z,5.07
2023-01-23T15:44:55.323Z,5.60
2023-01-23T15:47:23.219Z,6.07
2023-01-23T15:49:52.317Z,4.95
2023-01-23T15:52:23.688Z,5.38
2023-01-23T15:54:53.938Z,5.47
2023-01-23T15:57:21.882Z,5.32
2023-01-23T15:59:49.822Z,5.70
2023-01-23T16:02:30.736Z,6.93
2023-01-23T16:05:01.869Z,5.60
2023-01-23T16:07:34.792Z,5.90
2023-01-23T16:10:05.419Z,5.88
2023-01-23T16:12:36.051Z,5.90
2023-01-23T16:15:04.102Z,5.72
2023-01-23T16:17:32.022Z,6.03
2023-01-23T16:20:01.197Z,16.67
2023-01-23T16:22:29.682Z,19.05
2023-01-23T16:24:58.625Z,19.63
2023-01-23T16:27:27.666Z,15.30
2023-01-23T16:29:56.098Z,11.00
2023-01-23T16:32:25.147Z,7.32
2023-01-23T16:34:53.420Z,7.35
2023-01-23T16:37:22.667Z,8.27
2023-01-23T16:39:50.477Z,16.40
2023-01-23T16:42:21.584Z,14.98
2023-01-23T16:44:49.482Z,9.77
2023-01-23T16:47:17.789Z,10.02
2023-01-23T16:49:54.261Z,6.13
2023-01-23T16:52:26.325Z,7.15
2023-01-23T16:54:55.668Z,7.88
2023-01-23T16:57:24.011Z,7.15
2023-01-23T16:59:52.873Z,8.80
2023-01-23T17:02:22.970Z,6.60
2023-01-23T17:04:51.433Z,6.18
2023-01-23T17:07:20.366Z,7.35
2023-01-23T17:09:50.055Z,6.50
2023-01-23T17:12:21.992Z,5.75
2023-01-23T17:14:52.897Z,6.37
2023-01-23T17:17:28.079Z,6.35
2023-01-23T17:19:57.128Z,6.10
2023-01-23T17:22:27.283Z,6.38
2023-01-23T17:24:56.814Z,5.97
2023-01-23T17:27:25.158Z,6.77
2023-01-23T17:29:53.279Z,5.63
2023-01-23T17:32:32.396Z,5.47
2023-01-23T17:35:03.256Z,6.10
2023-01-23T17:37:31.915Z,7.05
2023-01-23T17:40:01.327Z,6.60
2023-01-23T17:42:29.003Z,7.00
2023-01-23T17:44:56.879Z,6.10
2023-01-23T17:47:25.885Z,6.60
2023-01-23T17:49:56.645Z,6.40
2023-01-23T17:52:26.732Z,5.57
2023-01-23T17:54:54.733Z,5.90
2023-01-23T17:57:24.088Z,5.60
2023-01-23T17:59:55.507Z,5.63
2023-01-23T18:02:28.868Z,5.78
2023-01-23T18:04:57.274Z,7.20
2023-01-23T18:07:25.459Z,6.10
2023-01-23T18:09:56.381Z,6.07
2023-01-23T18:12:32.054Z,5.93
2023-01-23T18:15:12.141Z,4.65
2023-01-23T18:17:48.486Z,5.23
2023-01-23T18:20:19.633Z,5.43
2023-01-23T18:22:47.863Z,5.13
2023-01-23T18:25:17.105Z,6.30
2023-01-23T18:27:50.167Z,6.63
2023-01-23T18:30:26.615Z,4.70
2023-01-23T18:33:10.276Z,5.68
2023-01-23T18:35:57.222Z,4.97
2023-01-23T18:38:36.021Z,4.55
2023-01-23T18:41:13.166Z,4.55
2023-01-23T18:43:51.276Z,4.60
2023-01-23T18:46:22.405Z,5.30
2023-01-23T18:48:50.944Z,5.82
2023-01-23T18:51:35.930Z,6.00
2023-01-23T18:54:20.251Z,5.22
2023-01-23T18:56:58.181Z,5.30
2023-01-23T18:59:34.163Z,5.57
2023-01-23T19:02:13.845Z,5.30
2023-01-23T19:04:47.029Z,6.43
2023-01-23T19:07:18.476Z,6.30
2023-01-23T19:09:48.475Z,6.20
2023-01-23T19:12:26.036Z,6.90
2023-01-23T19:15:24.675Z,6.13
2023-01-23T19:18:01.594Z,5.63
2023-01-23T19:20:33.994Z,6.13
2023-01-23T19:23:16.754Z,6.10
2023-01-23T19:25:48.290Z,6.03
2023-01-23T19:28:16.403Z,6.38
2023-01-23T19:30:46.438Z,6.10
2023-01-23T19:33:16.947Z,6.80
2023-01-23T19:35:45.381Z,6.20
2023-01-23T19:38:14.950Z,9.50
2023-01-23T19:40:43.082Z,8.40
2023-01-23T19:43:16.102Z,7.40
2023-01-23T19:45:46.218Z,7.43
2023-01-23T19:48:14.436Z,7.00
2023-01-23T19:50:43.768Z,6.78
2023-01-23T19:53:14.688Z,6.72
2023-01-23T19:55:42.749Z,6.07
2023-01-23T19:58:10.549Z,5.50
2023-01-23T20:00:38.694Z,6.00
2023-01-23T20:03:07.930Z,5.03
2023-01-23T20:05:35.960Z,5.20
2023-01-23T20:08:03.877Z,4.93
2023-01-23T20:10:31.946Z,4.78
2023-01-23T20:13:00.333Z,4.50
2023-01-23T20:15:28.711Z,4.90
2023-01-23T20:17:56.629Z,5.70
2023-01-23T20:20:25.793Z,5.45
2023-01-23T20:22:55.044Z,5.50
2023-01-23T20:25:23.011Z,4.97
2023-01-23T20:27:51.384Z,5.10
2023-01-23T20:30:21.245Z,5.65
2023-01-23T20:32:49.131Z,5.60
2023-01-23T20:35:17.109Z,5.55
2023-01-23T20:37:46.546Z,5.67
2023-01-23T20:40:14.490Z,5.60
2023-01-23T20:42:42.455Z,7.15
2023-01-23T20:45:11.102Z,5.75
2023-01-23T20:47:39.223Z,5.75
2023-01-23T20:50:07.645Z,5.90
2023-01-23T20:52:52.950Z,5.30
2023-01-23T20:55:22.366Z,5.63
2023-01-23T20:58:07.752Z,5.63
2023-01-23T21:00:35.752Z,5.72
2023-01-23T21:03:03.679Z,6.47
2023-01-23T21:05:31.520Z,6.25
2023-01-23T21:07:59.585Z,5.63
2023-01-23T21:10:28.807Z,6.00
2023-01-23T21:12:56.826Z,5.78
2023-01-23T21:15:24.876Z,5.53
2023-01-23T21:17:52.724Z,6.65
2023-01-23T21:20:20.654Z,8.25
2023-01-23T21:22:48.889Z,6.30
2023-01-23T21:25:16.811Z,5.97
2023-01-23T21:27:46.028Z,5.80
2023-01-23T21:30:15.107Z,5.72
2023-01-23T21:32:43.417Z,7.75
2023-01-23T21:35:11.941Z,5.88
2023-01-23T21:37:39.801Z,6.50
2023-01-23T21:40:09.841Z,6.43
2023-01-23T21:42:37.411Z,6.07
2023-01-23T21:45:07.563Z,6.63
2023-01-23T21:47:35.629Z,6.07
2023-01-23T21:50:03.861Z,5.68
2023-01-23T21:52:31.913Z,5.53
2023-01-23T21:55:00.095Z,5.85
2023-01-23T21:57:27.958Z,5.97
2023-01-23T22:00:13.848Z,5.28
2023-01-23T22:02:43.081Z,5.90
2023-01-23T22:05:11.206Z,5.33
2023-01-23T22:07:39.153Z,6.30
2023-01-23T22:10:08.729Z,5.75
2023-01-23T22:12:36.785Z,5.47
2023-01-23T22:15:05.188Z,6.10
2023-01-23T22:17:33.923Z,5.90
2023-01-23T22:20:03.255Z,6.13
2023-01-23T22:22:31.136Z,5.97
2023-01-23T22:24:59.122Z,6.78
2023-01-23T22:27:26.964Z,5.57
2023-01-23T22:29:54.954Z,6.37
2023-01-23T22:32:23.344Z,6.80
2023-01-23T22:34:51.393Z,5.35
2023-01-23T22:37:22.205Z,10.00
2023-01-23T22:39:50.355Z,9.00
2023-01-23T22:42:19.086Z,17.17
2023-01-23T22:44:46.777Z,14.05
2023-01-23T22:47:14.841Z,11.82
2023-01-23T22:49:44.198Z,7.15
2023-01-23T22:52:12.123Z,7.35
2023-01-23T22:54:41.635Z,6.10
2023-01-23T22:57:10.021Z,6.47
2023-01-23T22:59:37.899Z,5.85
2023-01-23T23:02:06.005Z,6.65
2023-01-23T23:04:34.313Z,7.25
2023-01-23T23:07:02.214Z,5.10
2023-01-23T23:09:30.711Z,5.78
2023-01-23T23:12:00.107Z,5.70
2023-01-23T23:14:27.985Z,5.55
2023-01-23T23:16:55.890Z,5.55
2023-01-23T23:19:23.994Z,5.23
2023-01-23T23:21:52.009Z,5.70
2023-01-23T23:24:19.911Z,4.72
2023-01-23T23:26:48.102Z,5.53
2023-01-23T23:29:17.358Z,5.70
2023-01-23T23:31:46.086Z,5.70
2023-01-23T23:34:14.243Z,6.35
2023-01-23T23:36:42.343Z,9.75
2023-01-23T23:39:10.342Z,6.28
2023-01-23T23:41:38.298Z,5.38
2023-01-23T23:44:06.673Z,5.50
2023-01-23T23:46:36.129Z,6.05
2023-01-23T23:49:04.056Z,5.57
2023-01-23T23:51:32.084Z,6.10
2023-01-23T23:54:00.009Z,6.35
2023-01-23T23:56:32.281Z,5.50
2023-01-23T23:59:00.228Z,5.85
